GLO1919 SBMO-SBSV
Flight info
| Callsign | GLO1919 |
|---|---|
| Flight time | 0h 50m |
| Altitude | 32000 |
| Route | ARVOR DCT GERSO UZ14 AKPAS |
| Aircraft | B738/M-SDE2E3FGHIRWXY/LB1 |
Departure
| Time | 2026-04-25 22:22 |
|---|---|
| Airport | Zumbi dos Palmares International Airport (SBMO) |
Arrival
| Time | 2026-04-25 23:12 |
|---|---|
| Airport | Deputado Luiz Eduardo Magalhães International Airport (SBSV) |
| Time | Latitude | Longitude | Altitude | Speed | Heading |
|---|---|---|---|---|---|
| 2026-04-25 21:47 | -9.51409 | -35.79165 | 400 ft | 0 kts | 191° |
| 2026-04-25 22:07 | -9.51407 | -35.79164 | 400 ft | 2 kts | 191° |
| 2026-04-25 22:07 | -9.51391 | -35.79161 | 418 ft | 2 kts | 191° |
| 2026-04-25 22:08 | -9.51375 | -35.79158 | 400 ft | 2 kts | 191° |
| 2026-04-25 22:08 | -9.51359 | -35.79154 | 400 ft | 2 kts | 210° |
| 2026-04-25 22:08 | -9.51349 | -35.79142 | 400 ft | 2 kts | 264° |
| 2026-04-25 22:08 | -9.51348 | -35.79129 | 400 ft | 1 kts | 278° |
| 2026-04-25 22:09 | -9.51349 | -35.79128 | 400 ft | 0 kts | 279° |
| 2026-04-25 22:14 | -9.51349 | -35.79129 | 400 ft | 1 kts | 279° |
| 2026-04-25 22:15 | -9.51341 | -35.79172 | 400 ft | 12 kts | 280° |
| 2026-04-25 22:15 | -9.51324 | -35.79259 | 400 ft | 11 kts | 281° |
| 2026-04-25 22:15 | -9.51311 | -35.79330 | 400 ft | 10 kts | 281° |
| 2026-04-25 22:16 | -9.51216 | -35.79437 | 400 ft | 12 kts | 335° |
| 2026-04-25 22:16 | -9.51182 | -35.79511 | 400 ft | 12 kts | 282° |
| 2026-04-25 22:16 | -9.51168 | -35.79592 | 400 ft | 11 kts | 279° |
| 2026-04-25 22:16 | -9.51153 | -35.79675 | 400 ft | 14 kts | 280° |
| 2026-04-25 22:17 | -9.51135 | -35.79780 | 400 ft | 15 kts | 279° |
| 2026-04-25 22:17 | -9.51112 | -35.79904 | 400 ft | 19 kts | 281° |
| 2026-04-25 22:17 | -9.51088 | -35.80031 | 400 ft | 18 kts | 281° |
| 2026-04-25 22:17 | -9.51064 | -35.80154 | 400 ft | 18 kts | 281° |
| 2026-04-25 22:18 | -9.51043 | -35.80270 | 400 ft | 10 kts | 279° |
| 2026-04-25 22:18 | -9.51039 | -35.80296 | 400 ft | 1 kts | 279° |
| 2026-04-25 22:18 | -9.51032 | -35.80327 | 398 ft | 10 kts | 289° |
| 2026-04-25 22:18 | -9.50972 | -35.80339 | 400 ft | 2 kts | 9° |
| 2026-04-25 22:20 | -9.50966 | -35.80338 | 400 ft | 3 kts | 9° |
| 2026-04-25 22:20 | -9.50917 | -35.80329 | 400 ft | 9 kts | 13° |
| 2026-04-25 22:20 | -9.50878 | -35.80292 | 400 ft | 8 kts | 83° |
| 2026-04-25 22:21 | -9.50879 | -35.80275 | 400 ft | 0 kts | 98° |
| 2026-04-25 22:21 | -9.50881 | -35.80263 | 400 ft | 13 kts | 98° |
| 2026-04-25 22:21 | -9.50944 | -35.79923 | 401 ft | 84 kts | 101° |
| 2026-04-25 22:21 | -9.51094 | -35.79120 | 398 ft | 144 kts | 101° |
| 2026-04-25 22:22 | -9.51287 | -35.78019 | 733 ft | 166 kts | 101° |
| 2026-04-25 22:22 | -9.51523 | -35.76826 | 1354 ft | 174 kts | 103° |
| 2026-04-25 22:22 | -9.51763 | -35.75636 | 2165 ft | 169 kts | 104° |
| 2026-04-25 22:22 | -9.52337 | -35.74564 | 2499 ft | 191 kts | 144° |
| 2026-04-25 22:23 | -9.53660 | -35.74218 | 2716 ft | 214 kts | 186° |
| 2026-04-25 22:23 | -9.55094 | -35.74846 | 2923 ft | 237 kts | 211° |
| 2026-04-25 22:23 | -9.56523 | -35.75849 | 3147 ft | 260 kts | 212° |
| 2026-04-25 22:23 | -9.58003 | -35.76920 | 3784 ft | 265 kts | 213° |
| 2026-04-25 22:24 | -9.59510 | -35.78013 | 4586 ft | 266 kts | 213° |
| 2026-04-25 22:24 | -9.61031 | -35.79109 | 5317 ft | 269 kts | 212° |
| 2026-04-25 22:24 | -9.62571 | -35.80210 | 6041 ft | 272 kts | 212° |
| 2026-04-25 22:24 | -9.64113 | -35.81305 | 6724 ft | 275 kts | 212° |
| 2026-04-25 22:25 | -9.65695 | -35.82424 | 7385 ft | 278 kts | 213° |
| 2026-04-25 22:25 | -9.67280 | -35.83541 | 8046 ft | 281 kts | 213° |
| 2026-04-25 22:25 | -9.68894 | -35.84675 | 8716 ft | 284 kts | 213° |
| 2026-04-25 22:25 | -9.70528 | -35.85822 | 9389 ft | 287 kts | 213° |
| 2026-04-25 22:26 | -9.72185 | -35.86984 | 10040 ft | 290 kts | 213° |
| 2026-04-25 22:26 | -9.73874 | -35.88167 | 10341 ft | 307 kts | 213° |
| 2026-04-25 22:26 | -9.75693 | -35.89439 | 10494 ft | 327 kts | 213° |
| 2026-04-25 22:26 | -9.77618 | -35.90785 | 10722 ft | 342 kts | 213° |
| 2026-04-25 22:27 | -9.79602 | -35.92174 | 11167 ft | 349 kts | 213° |
| 2026-04-25 22:27 | -9.81613 | -35.93583 | 11766 ft | 351 kts | 213° |
| 2026-04-25 22:27 | -9.83634 | -35.94999 | 12355 ft | 354 kts | 213° |
| 2026-04-25 22:27 | -9.85648 | -35.96409 | 12888 ft | 358 kts | 214° |
| 2026-04-25 22:28 | -9.87719 | -35.97860 | 13448 ft | 362 kts | 214° |
| 2026-04-25 22:28 | -9.89813 | -35.99326 | 13995 ft | 366 kts | 214° |
| 2026-04-25 22:28 | -9.91920 | -36.00802 | 14508 ft | 369 kts | 214° |
| 2026-04-25 22:28 | -9.94019 | -36.02273 | 15058 ft | 372 kts | 214° |
| 2026-04-25 22:29 | -9.96168 | -36.03778 | 15596 ft | 376 kts | 214° |
| 2026-04-25 22:29 | -9.98337 | -36.05298 | 16123 ft | 379 kts | 214° |
| 2026-04-25 22:29 | -10.00517 | -36.06826 | 16650 ft | 383 kts | 214° |
| 2026-04-25 22:30 | -10.04924 | -36.09915 | 17680 ft | 390 kts | 214° |
| 2026-04-25 22:30 | -10.07169 | -36.11489 | 18180 ft | 394 kts | 214° |
| 2026-04-25 22:30 | -10.09447 | -36.13086 | 18595 ft | 398 kts | 214° |
| 2026-04-25 22:30 | -10.10971 | -36.14156 | 18864 ft | 401 kts | 214° |
| 2026-04-25 22:31 | -10.14026 | -36.16299 | 19468 ft | 403 kts | 214° |
| 2026-04-25 22:31 | -10.16342 | -36.17924 | 19906 ft | 406 kts | 214° |
| 2026-04-25 22:31 | -10.18690 | -36.19571 | 20327 ft | 409 kts | 214° |
| 2026-04-25 22:31 | -10.21011 | -36.21201 | 20741 ft | 411 kts | 213° |
| 2026-04-25 22:32 | -10.23378 | -36.22862 | 21140 ft | 414 kts | 213° |
| 2026-04-25 22:32 | -10.25764 | -36.24538 | 21535 ft | 417 kts | 213° |
| 2026-04-25 22:32 | -10.28139 | -36.26206 | 21929 ft | 419 kts | 213° |
| 2026-04-25 22:32 | -10.30557 | -36.27905 | 22302 ft | 422 kts | 213° |
| 2026-04-25 22:33 | -10.32960 | -36.29594 | 22678 ft | 424 kts | 213° |
| 2026-04-25 22:33 | -10.35402 | -36.31310 | 23033 ft | 427 kts | 213° |
| 2026-04-25 22:33 | -10.37845 | -36.33037 | 23440 ft | 428 kts | 213° |
| 2026-04-25 22:33 | -10.40269 | -36.34761 | 23755 ft | 430 kts | 213° |
| 2026-04-25 22:34 | -10.42751 | -36.36529 | 24046 ft | 432 kts | 213° |
| 2026-04-25 22:34 | -10.45193 | -36.38270 | 24339 ft | 434 kts | 213° |
| 2026-04-25 22:34 | -10.47681 | -36.40043 | 24643 ft | 435 kts | 213° |
| 2026-04-25 22:34 | -10.50179 | -36.41823 | 24941 ft | 437 kts | 213° |
| 2026-04-25 22:35 | -10.52639 | -36.43575 | 25223 ft | 439 kts | 213° |
| 2026-04-25 22:35 | -10.55151 | -36.45365 | 25541 ft | 439 kts | 213° |
| 2026-04-25 22:35 | -10.57665 | -36.47156 | 25950 ft | 437 kts | 213° |
| 2026-04-25 22:35 | -10.60124 | -36.48908 | 26398 ft | 435 kts | 213° |
| 2026-04-25 22:36 | -10.62604 | -36.50676 | 26807 ft | 434 kts | 213° |
| 2026-04-25 22:36 | -10.65093 | -36.52450 | 27151 ft | 435 kts | 213° |
| 2026-04-25 22:36 | -10.67546 | -36.54199 | 27507 ft | 435 kts | 213° |
| 2026-04-25 22:36 | -10.70017 | -36.55961 | 27945 ft | 433 kts | 213° |
| 2026-04-25 22:37 | -10.72481 | -36.57719 | 28408 ft | 431 kts | 213° |
| 2026-04-25 22:37 | -10.74945 | -36.59477 | 28841 ft | 430 kts | 212° |
| 2026-04-25 22:37 | -10.77394 | -36.61226 | 29247 ft | 430 kts | 212° |
| 2026-04-25 22:37 | -10.79817 | -36.62954 | 29655 ft | 429 kts | 212° |
| 2026-04-25 22:38 | -10.82266 | -36.64702 | 29996 ft | 430 kts | 212° |
| 2026-04-25 22:38 | -10.84737 | -36.66467 | 29967 ft | 434 kts | 212° |
| 2026-04-25 22:38 | -10.89620 | -36.69972 | 29974 ft | 427 kts | 212° |
| 2026-04-25 22:39 | -10.94467 | -36.73457 | 29988 ft | 425 kts | 212° |
| 2026-04-25 22:39 | -10.99296 | -36.76927 | 29982 ft | 427 kts | 212° |
| 2026-04-25 22:40 | -11.04171 | -36.80432 | 29980 ft | 428 kts | 212° |
| 2026-04-25 22:40 | -11.09048 | -36.83939 | 29975 ft | 429 kts | 212° |
| 2026-04-25 22:41 | -11.13898 | -36.87429 | 29975 ft | 428 kts | 212° |
| 2026-04-25 22:41 | -11.18769 | -36.90936 | 29976 ft | 428 kts | 212° |
| 2026-04-25 22:42 | -11.23608 | -36.94421 | 29975 ft | 427 kts | 212° |
| 2026-04-25 22:42 | -11.28464 | -36.97919 | 29980 ft | 426 kts | 212° |
| 2026-04-25 22:43 | -11.33272 | -37.01385 | 29982 ft | 425 kts | 212° |
| 2026-04-25 22:43 | -11.38108 | -37.04872 | 29987 ft | 425 kts | 212° |
| 2026-04-25 22:44 | -11.42922 | -37.08344 | 29984 ft | 425 kts | 212° |
| 2026-04-25 22:44 | -11.46952 | -37.11252 | 29987 ft | 425 kts | 212° |
| 2026-04-25 22:45 | -11.51796 | -37.14749 | 29986 ft | 426 kts | 212° |
| 2026-04-25 22:45 | -11.56601 | -37.18219 | 29986 ft | 426 kts | 212° |
| 2026-04-25 22:46 | -11.61457 | -37.21728 | 29984 ft | 426 kts | 212° |
| 2026-04-25 22:46 | -11.66238 | -37.25188 | 29967 ft | 409 kts | 212° |
| 2026-04-25 22:47 | -11.68497 | -37.26824 | 29884 ft | 398 kts | 212° |
| 2026-04-25 22:47 | -11.70747 | -37.28453 | 29615 ft | 391 kts | 212° |
| 2026-04-25 22:47 | -11.72938 | -37.30037 | 29266 ft | 388 kts | 212° |
| 2026-04-25 22:47 | -11.75144 | -37.31631 | 28939 ft | 384 kts | 212° |
| 2026-04-25 22:48 | -11.77323 | -37.33207 | 28557 ft | 382 kts | 212° |
| 2026-04-25 22:48 | -11.79469 | -37.34760 | 28199 ft | 379 kts | 212° |
| 2026-04-25 22:48 | -11.81613 | -37.36312 | 27825 ft | 377 kts | 213° |
| 2026-04-25 22:48 | -11.83754 | -37.37862 | 27459 ft | 375 kts | 213° |
| 2026-04-25 22:49 | -11.85860 | -37.39387 | 27111 ft | 372 kts | 213° |
| 2026-04-25 22:49 | -11.87980 | -37.40923 | 26765 ft | 370 kts | 213° |
| 2026-04-25 22:49 | -11.90050 | -37.42423 | 26422 ft | 368 kts | 213° |
| 2026-04-25 22:49 | -11.92147 | -37.43942 | 26073 ft | 366 kts | 213° |
| 2026-04-25 22:50 | -11.94181 | -37.45519 | 25724 ft | 366 kts | 217° |
| 2026-04-25 22:50 | -11.96120 | -37.47156 | 25378 ft | 365 kts | 218° |
| 2026-04-25 22:50 | -11.98060 | -37.48839 | 25024 ft | 363 kts | 218° |
| 2026-04-25 22:50 | -11.99982 | -37.50513 | 24665 ft | 363 kts | 219° |
| 2026-04-25 22:51 | -12.01907 | -37.52184 | 24310 ft | 362 kts | 218° |
| 2026-04-25 22:51 | -12.03813 | -37.53828 | 23968 ft | 361 kts | 218° |
| 2026-04-25 22:51 | -12.05749 | -37.55492 | 23611 ft | 361 kts | 218° |
| 2026-04-25 22:51 | -12.07674 | -37.57143 | 23210 ft | 360 kts | 218° |
| 2026-04-25 22:52 | -12.09594 | -37.58787 | 22841 ft | 358 kts | 218° |
| 2026-04-25 22:52 | -12.11481 | -37.60400 | 22483 ft | 356 kts | 218° |
| 2026-04-25 22:52 | -12.13384 | -37.62028 | 22136 ft | 354 kts | 218° |
| 2026-04-25 22:52 | -12.15273 | -37.63643 | 21787 ft | 352 kts | 218° |
| 2026-04-25 22:53 | -12.17130 | -37.65231 | 21447 ft | 350 kts | 218° |
| 2026-04-25 22:53 | -12.19003 | -37.66833 | 21107 ft | 349 kts | 218° |
| 2026-04-25 22:53 | -12.20867 | -37.68429 | 20768 ft | 347 kts | 219° |
| 2026-04-25 22:53 | -12.22695 | -37.69993 | 20434 ft | 346 kts | 218° |
| 2026-04-25 22:54 | -12.24548 | -37.71577 | 20095 ft | 344 kts | 218° |
| 2026-04-25 22:54 | -12.26389 | -37.73152 | 19753 ft | 344 kts | 219° |
| 2026-04-25 22:54 | -12.28225 | -37.74723 | 19399 ft | 343 kts | 219° |
| 2026-04-25 22:54 | -12.30040 | -37.76277 | 19067 ft | 342 kts | 219° |
| 2026-04-25 22:55 | -12.31871 | -37.77846 | 18712 ft | 342 kts | 219° |
| 2026-04-25 22:55 | -12.33697 | -37.79410 | 18369 ft | 342 kts | 219° |
| 2026-04-25 22:55 | -12.35505 | -37.80959 | 17992 ft | 341 kts | 219° |
| 2026-04-25 22:55 | -12.37333 | -37.82526 | 17635 ft | 340 kts | 219° |
| 2026-04-25 22:56 | -12.39124 | -37.84061 | 17295 ft | 338 kts | 219° |
| 2026-04-25 22:56 | -12.40927 | -37.85607 | 16952 ft | 336 kts | 219° |
| 2026-04-25 22:56 | -12.42718 | -37.87143 | 16615 ft | 334 kts | 219° |
| 2026-04-25 22:56 | -12.44492 | -37.88665 | 16280 ft | 332 kts | 219° |
| 2026-04-25 22:57 | -12.46262 | -37.90183 | 15944 ft | 330 kts | 218° |
| 2026-04-25 22:57 | -12.48001 | -37.91675 | 15620 ft | 328 kts | 218° |
| 2026-04-25 22:57 | -12.49754 | -37.93180 | 15294 ft | 327 kts | 218° |
| 2026-04-25 22:57 | -12.51498 | -37.94675 | 14966 ft | 325 kts | 218° |
| 2026-04-25 22:58 | -12.53217 | -37.96128 | 14727 ft | 321 kts | 218° |
| 2026-04-25 22:58 | -12.54950 | -37.97566 | 14427 ft | 319 kts | 218° |
| 2026-04-25 22:58 | -12.56676 | -37.98992 | 14127 ft | 317 kts | 218° |
| 2026-04-25 22:58 | -12.58364 | -38.00386 | 13839 ft | 315 kts | 218° |
| 2026-04-25 22:59 | -12.60070 | -38.01798 | 13483 ft | 314 kts | 218° |
| 2026-04-25 22:59 | -12.61776 | -38.03211 | 13146 ft | 312 kts | 218° |
| 2026-04-25 22:59 | -12.63441 | -38.04592 | 12824 ft | 310 kts | 217° |
| 2026-04-25 22:59 | -12.65115 | -38.05981 | 12576 ft | 306 kts | 217° |
| 2026-04-25 23:00 | -12.66741 | -38.07331 | 12317 ft | 302 kts | 217° |
| 2026-04-25 23:00 | -12.68355 | -38.08673 | 12106 ft | 297 kts | 217° |
| 2026-04-25 23:00 | -12.69961 | -38.10007 | 11807 ft | 295 kts | 217° |
| 2026-04-25 23:00 | -12.71546 | -38.11323 | 11559 ft | 291 kts | 217° |
| 2026-04-25 23:01 | -12.73119 | -38.12630 | 11334 ft | 288 kts | 217° |
| 2026-04-25 23:01 | -12.74651 | -38.13903 | 11054 ft | 286 kts | 217° |
| 2026-04-25 23:01 | -12.76204 | -38.15199 | 10759 ft | 286 kts | 219° |
| 2026-04-25 23:01 | -12.77391 | -38.16829 | 10429 ft | 291 kts | 245° |
| 2026-04-25 23:02 | -12.77940 | -38.18833 | 9964 ft | 300 kts | 256° |
| 2026-04-25 23:02 | -12.78355 | -38.20934 | 9579 ft | 301 kts | 257° |
| 2026-04-25 23:02 | -12.78757 | -38.23037 | 9262 ft | 300 kts | 257° |
| 2026-04-25 23:02 | -12.79162 | -38.25132 | 8952 ft | 299 kts | 257° |
| 2026-04-25 23:03 | -12.79576 | -38.27230 | 8648 ft | 298 kts | 256° |
| 2026-04-25 23:03 | -12.79986 | -38.29278 | 8348 ft | 293 kts | 256° |
| 2026-04-25 23:03 | -12.80395 | -38.31308 | 8050 ft | 285 kts | 256° |
| 2026-04-25 23:03 | -12.80790 | -38.33253 | 7771 ft | 278 kts | 256° |
| 2026-04-25 23:04 | -12.81180 | -38.35167 | 7504 ft | 270 kts | 256° |
| 2026-04-25 23:04 | -12.81433 | -38.36414 | 7330 ft | 267 kts | 256° |
| 2026-04-25 23:04 | -12.81941 | -38.38906 | 6947 ft | 267 kts | 256° |
| 2026-04-25 23:04 | -12.82318 | -38.40780 | 6541 ft | 276 kts | 256° |
| 2026-04-25 23:05 | -12.82710 | -38.42737 | 6076 ft | 283 kts | 256° |
| 2026-04-25 23:05 | -12.83108 | -38.44727 | 5793 ft | 280 kts | 256° |
| 2026-04-25 23:05 | -12.83483 | -38.46611 | 5706 ft | 259 kts | 256° |
| 2026-04-25 23:05 | -12.83828 | -38.48344 | 5552 ft | 242 kts | 256° |
| 2026-04-25 23:06 | -12.84202 | -38.49980 | 5429 ft | 228 kts | 245° |
| 2026-04-25 23:06 | -12.85132 | -38.51191 | 5227 ft | 210 kts | 208° |
| 2026-04-25 23:06 | -12.86402 | -38.51702 | 5163 ft | 190 kts | 187° |
| 2026-04-25 23:06 | -12.87686 | -38.51741 | 4926 ft | 180 kts | 168° |
| 2026-04-25 23:07 | -12.88895 | -38.51514 | 4582 ft | 178 kts | 165° |
| 2026-04-25 23:07 | -12.90123 | -38.51254 | 4203 ft | 180 kts | 165° |
| 2026-04-25 23:07 | -12.91345 | -38.50997 | 3886 ft | 177 kts | 166° |
| 2026-04-25 23:07 | -12.92521 | -38.50680 | 3509 ft | 177 kts | 150° |
| 2026-04-25 23:08 | -12.93440 | -38.49874 | 3193 ft | 174 kts | 125° |
| 2026-04-25 23:08 | -12.93869 | -38.48732 | 2810 ft | 177 kts | 89° |
| 2026-04-25 23:08 | -12.93725 | -38.47519 | 2677 ft | 173 kts | 89° |
| 2026-04-25 23:08 | -12.93648 | -38.46297 | 2487 ft | 167 kts | 85° |
| 2026-04-25 23:09 | -12.93448 | -38.45180 | 2261 ft | 156 kts | 81° |
| 2026-04-25 23:09 | -12.93235 | -38.44123 | 2094 ft | 146 kts | 82° |
| 2026-04-25 23:09 | -12.93026 | -38.43085 | 1900 ft | 150 kts | 82° |
| 2026-04-25 23:09 | -12.92815 | -38.42027 | 1703 ft | 151 kts | 81° |
| 2026-04-25 23:10 | -12.92604 | -38.40983 | 1488 ft | 149 kts | 81° |
| 2026-04-25 23:10 | -12.92394 | -38.39933 | 1318 ft | 151 kts | 80° |
| 2026-04-25 23:10 | -12.92183 | -38.38880 | 1086 ft | 149 kts | 81° |
| 2026-04-25 23:10 | -12.91975 | -38.37848 | 933 ft | 151 kts | 81° |
| 2026-04-25 23:11 | -12.91757 | -38.36789 | 722 ft | 152 kts | 80° |
| 2026-04-25 23:11 | -12.91553 | -38.35728 | 524 ft | 149 kts | 80° |
| 2026-04-25 23:11 | -12.91344 | -38.34694 | 325 ft | 146 kts | 79° |
| 2026-04-25 23:11 | -12.91142 | -38.33692 | 107 ft | 142 kts | 79° |
| 2026-04-25 23:12 | -12.90960 | -38.32772 | 48 ft | 115 kts | 79° |
| 2026-04-25 23:12 | -12.90830 | -38.32119 | 48 ft | 83 kts | 78° |
| 2026-04-25 23:12 | -12.90772 | -38.31763 | 44 ft | 28 kts | 113° |
| 2026-04-25 23:12 | -12.90897 | -38.31721 | 52 ft | 16 kts | 217° |
| 2026-04-25 23:13 | -12.90922 | -38.31785 | 52 ft | 4 kts | 258° |
| 2026-04-25 23:13 | -12.90927 | -38.31813 | 52 ft | 4 kts | 258° |
| 2026-04-25 23:13 | -12.90933 | -38.31840 | 52 ft | 4 kts | 258° |
| 2026-04-25 23:13 | -12.90938 | -38.31867 | 52 ft | 4 kts | 258° |
| 2026-04-25 23:14 | -12.90945 | -38.31898 | 50 ft | 6 kts | 258° |
| 2026-04-25 23:14 | -12.90956 | -38.31952 | 52 ft | 8 kts | 258° |
| 2026-04-25 23:14 | -12.90969 | -38.32021 | 52 ft | 13 kts | 258° |
| 2026-04-25 23:14 | -12.90988 | -38.32112 | 51 ft | 13 kts | 258° |
| 2026-04-25 23:15 | -12.91009 | -38.32218 | 52 ft | 17 kts | 259° |
| 2026-04-25 23:15 | -12.91034 | -38.32342 | 52 ft | 16 kts | 258° |
| 2026-04-25 23:15 | -12.91055 | -38.32445 | 51 ft | 11 kts | 258° |
| 2026-04-25 23:15 | -12.91070 | -38.32524 | 51 ft | 11 kts | 258° |
| 2026-04-25 23:16 | -12.91086 | -38.32602 | 51 ft | 12 kts | 258° |
| 2026-04-25 23:16 | -12.91107 | -38.32704 | 50 ft | 18 kts | 258° |
| 2026-04-25 23:16 | -12.91135 | -38.32845 | 48 ft | 22 kts | 258° |
| 2026-04-25 23:16 | -12.91166 | -38.33001 | 44 ft | 23 kts | 258° |
| 2026-04-25 23:17 | -12.91196 | -38.33145 | 43 ft | 15 kts | 258° |
| 2026-04-25 23:17 | -12.91239 | -38.33180 | 43 ft | 9 kts | 180° |
| 2026-04-25 23:17 | -12.91272 | -38.33224 | 43 ft | 8 kts | 257° |
| 2026-04-25 23:17 | -12.91285 | -38.33282 | 43 ft | 8 kts | 258° |
| 2026-04-25 23:18 | -12.91317 | -38.33321 | 43 ft | 8 kts | 180° |
| 2026-04-25 23:18 | -12.91333 | -38.33318 | 43 ft | 1 kts | 171° |
| 2026-04-25 23:18 | -12.91341 | -38.33317 | 43 ft | 2 kts | 170° |
| 2026-04-25 23:18 | -12.91347 | -38.33316 | 39 ft | 0 kts | 169° |
| 2026-04-25 23:19 | -12.91348 | -38.33315 | 40 ft | 0 kts | 169° |